CheckWX is a tool to help pilots better visualize weather data.  It is not intended as a substitute for an official pre-flight weather briefing.

06:31:21 UTC

KTOP METAR
Philip Billard Municipal Airport
Topeka, Kansas, USA
Current

38 mins ago

KTOP 290553Z AUTO 34010KT 10SM CLR 19/09 A3008 RMK AO2 SLP181 T01890089 10256 20172 402610172 51014
Observed
May-29 @ 05:53 UTC
Wind
  • 340° at 10 KTS
Visibility
Flight Rules
VFR
Cloud Levels
  • Clear skies
Dewpoint
C / 48°F
Humidity
52%
Altimeter
30.08" Hg
Pressure
1018.62 hPa
Previous

2 hours ago

KTOP 290453Z AUTO 32007KT 10SM CLR 18/13 A3007 RMK AO2 SLP175 T01830133
Observed
May-29 @ 04:53 UTC
Wind
  • 320° at 7 KTS
Visibility
Flight Rules
VFR
Cloud Levels
  • Clear skies
Temperature
18°C / 64°F
Dewpoint
13°C / 55°F
Humidity
73%
Altimeter
30.07" Hg
Pressure
1018.32 hPa
Previous

3 hours ago

KTOP 290353Z AUTO 00000KT 10SM CLR 17/16 A3005 RMK AO2 SLP171 T01720156
Observed
May-29 @ 03:53 UTC
Visibility
Flight Rules
VFR
Cloud Levels
  • Clear skies
Temperature
17°C / 63°F
Dewpoint
16°C / 61°F
Humidity
94%
Altimeter
30.05" Hg
Pressure
1017.62 hPa